createdAt,value
2023-04-16T00:00:55.276Z,91.80
2023-04-16T00:03:21.793Z,93.07
2023-04-16T00:05:48.212Z,96.32
2023-04-16T00:08:14.592Z,90.05
2023-04-16T00:10:41.321Z,85.47
2023-04-16T00:13:07.636Z,87.45
2023-04-16T00:15:34.056Z,98.15
2023-04-16T00:18:00.410Z,95.50
2023-04-16T00:20:26.785Z,89.13
2023-04-16T00:22:53.175Z,97.53
2023-04-16T00:25:19.560Z,90.22
2023-04-16T00:27:45.869Z,92.35
2023-04-16T00:30:12.457Z,90.43
2023-04-16T00:32:38.874Z,105.03
2023-04-16T00:35:05.738Z,96.18
2023-04-16T00:37:32.258Z,90.97
2023-04-16T00:39:58.737Z,106.95
2023-04-16T00:42:25.049Z,101.28
2023-04-16T00:44:51.527Z,100.90
2023-04-16T00:47:19.753Z,102.43
2023-04-16T00:49:46.643Z,104.70
2023-04-16T00:52:13.041Z,103.20
2023-04-16T00:54:39.848Z,103.68
2023-04-16T00:57:06.229Z,102.93
2023-04-16T00:59:32.764Z,102.05
2023-04-16T01:01:59.206Z,95.50
2023-04-16T01:04:25.735Z,100.28
2023-04-16T01:06:52.088Z,97.80
2023-04-16T01:09:18.515Z,104.45
2023-04-16T01:11:44.839Z,101.10
2023-04-16T01:14:11.372Z,101.43
2023-04-16T01:16:37.681Z,97.60
2023-04-16T01:19:04.010Z,97.78
2023-04-16T01:21:30.319Z,97.50
2023-04-16T01:23:56.614Z,94.80
2023-04-16T01:26:22.997Z,96.55
2023-04-16T01:28:49.300Z,94.80
2023-04-16T01:31:15.646Z,102.22
2023-04-16T01:33:42.011Z,100.18
2023-04-16T01:36:08.343Z,98.22
2023-04-16T01:38:34.709Z,102.75
2023-04-16T01:41:01.067Z,97.18
2023-04-16T01:43:27.393Z,94.63
2023-04-16T01:46:12.181Z,94.97
2023-04-16T01:48:38.586Z,95.93
2023-04-16T01:51:05.335Z,88.95
2023-04-16T01:53:31.670Z,86.38
2023-04-16T01:55:57.962Z,84.93
2023-04-16T01:58:24.269Z,89.90
2023-04-16T02:00:50.622Z,90.93
2023-04-16T02:03:17.087Z,87.35
2023-04-16T02:05:43.506Z,78.47
2023-04-16T02:08:09.833Z,82.85
2023-04-16T02:10:36.149Z,75.88
2023-04-16T02:13:02.467Z,80.60
2023-04-16T02:15:28.856Z,75.68
2023-04-16T02:17:55.174Z,77.47
2023-04-16T02:20:21.537Z,76.68
2023-04-16T02:22:47.950Z,75.28
2023-04-16T02:25:14.313Z,80.28
2023-04-16T02:27:40.632Z,75.90
2023-04-16T02:30:07.640Z,74.72
2023-04-16T02:32:33.947Z,72.95
2023-04-16T02:35:00.247Z,70.70
2023-04-16T02:37:26.545Z,68.15
2023-04-16T02:39:52.859Z,70.70
2023-04-16T02:42:19.156Z,70.47
2023-04-16T02:44:45.461Z,73.00
2023-04-16T02:47:11.752Z,70.57
2023-04-16T02:49:38.071Z,64.22
2023-04-16T02:52:04.553Z,70.97
2023-04-16T02:54:30.845Z,64.95
2023-04-16T02:56:57.160Z,67.00
2023-04-16T02:59:23.444Z,61.28
2023-04-16T03:01:49.923Z,55.45
2023-04-16T03:04:16.479Z,58.53
2023-04-16T03:06:42.819Z,57.63
2023-04-16T03:09:09.413Z,65.15
2023-04-16T03:11:35.920Z,56.90
2023-04-16T03:14:02.236Z,61.25
2023-04-16T03:16:28.545Z,58.58
2023-04-16T03:18:54.856Z,58.58
2023-04-16T03:21:21.170Z,57.22
2023-04-16T03:23:47.479Z,60.38
2023-04-16T03:26:13.785Z,60.03
2023-04-16T03:28:40.072Z,60.90
2023-04-16T03:31:06.442Z,63.75
2023-04-16T03:33:32.799Z,68.20
2023-04-16T03:35:59.228Z,74.65
2023-04-16T03:38:26.003Z,70.65
2023-04-16T03:40:52.310Z,74.00
2023-04-16T03:43:18.633Z,75.82
2023-04-16T03:45:45.648Z,87.05
2023-04-16T03:48:12.153Z,82.93
2023-04-16T03:50:38.610Z,84.07
2023-04-16T03:53:04.931Z,82.68
2023-04-16T03:55:31.232Z,83.28
2023-04-16T03:57:57.532Z,83.13
2023-04-16T04:00:23.852Z,79.30
2023-04-16T04:02:50.290Z,80.15
2023-04-16T04:05:16.741Z,81.95
2023-04-16T04:07:43.044Z,83.25
2023-04-16T04:10:09.593Z,82.50
2023-04-16T04:12:35.888Z,85.43
2023-04-16T04:15:02.205Z,82.55
2023-04-16T04:17:28.523Z,82.50
2023-04-16T04:22:26.620Z,94.45
2023-04-16T04:24:52.937Z,92.38
2023-04-16T04:27:19.260Z,86.70
2023-04-16T04:29:45.571Z,86.25
2023-04-16T04:32:11.885Z,94.43
2023-04-16T04:34:38.201Z,95.70
2023-04-16T04:37:04.545Z,87.50
2023-04-16T04:39:30.861Z,92.90
2023-04-16T04:41:57.439Z,93.80
2023-04-16T04:44:23.753Z,88.90
2023-04-16T04:46:50.035Z,90.60
2023-04-16T04:49:16.355Z,85.90
2023-04-16T04:51:42.652Z,81.13
2023-04-16T04:54:08.957Z,77.97
2023-04-16T04:56:35.268Z,77.45
2023-04-16T04:59:01.568Z,79.88
2023-04-16T05:01:27.946Z,84.45
2023-04-16T05:03:54.280Z,81.85
2023-04-16T05:06:20.668Z,80.90
2023-04-16T05:08:46.970Z,78.95
2023-04-16T05:11:13.297Z,81.13
2023-04-16T05:13:39.613Z,78.60
2023-04-16T05:16:06.438Z,81.47
2023-04-16T05:18:32.783Z,82.25
2023-04-16T05:20:59.110Z,84.32
2023-04-16T05:23:25.431Z,81.35
2023-04-16T05:25:51.749Z,89.65
2023-04-16T05:28:18.036Z,87.35
2023-04-16T05:30:44.409Z,94.13
2023-04-16T05:33:10.759Z,91.55
2023-04-16T05:35:37.071Z,84.32
2023-04-16T05:38:03.486Z,92.38
2023-04-16T05:40:30.130Z,79.05
2023-04-16T05:42:56.443Z,80.55
2023-04-16T05:45:22.735Z,83.07
2023-04-16T05:47:49.142Z,85.47
2023-04-16T05:50:15.576Z,80.72
2023-04-16T05:52:41.888Z,81.72
2023-04-16T05:55:08.606Z,79.45
2023-04-16T05:57:34.914Z,76.32
2023-04-16T06:00:01.218Z,77.72
2023-04-16T06:02:27.635Z,82.85
2023-04-16T06:04:54.084Z,77.18
2023-04-16T06:07:20.401Z,79.00
2023-04-16T06:09:46.705Z,87.45
2023-04-16T06:12:13.084Z,78.40
2023-04-16T06:14:39.392Z,77.50
2023-04-16T06:17:05.715Z,81.80
2023-04-16T06:19:32.048Z,76.18
2023-04-16T06:21:58.356Z,81.53
2023-04-16T06:24:24.678Z,70.45
2023-04-16T06:26:51.034Z,70.40
2023-04-16T06:29:17.362Z,72.10
2023-04-16T06:31:43.697Z,68.10
2023-04-16T06:34:10.280Z,66.68
2023-04-16T06:36:36.578Z,64.53
2023-04-16T06:39:03.000Z,65.60
2023-04-16T06:41:29.923Z,64.18
2023-04-16T06:43:56.227Z,66.68
2023-04-16T06:46:22.555Z,64.13
2023-04-16T06:48:49.024Z,62.85
2023-04-16T06:51:15.364Z,64.25
2023-04-16T06:53:41.753Z,67.10
2023-04-16T06:56:08.260Z,62.97
2023-04-16T06:58:34.580Z,59.92
2023-04-16T07:01:01.000Z,61.92
2023-04-16T07:03:27.520Z,68.53
2023-04-16T07:05:53.991Z,68.28
2023-04-16T07:08:20.311Z,64.45
2023-04-16T07:10:46.613Z,78.47
2023-04-16T07:13:12.934Z,70.55
2023-04-16T07:15:39.250Z,62.42
2023-04-16T07:18:05.579Z,64.68
2023-04-16T07:20:31.933Z,62.15
2023-04-16T07:22:58.263Z,57.22
2023-04-16T07:25:24.748Z,63.38
2023-04-16T07:27:51.041Z,61.58
2023-04-16T07:30:17.359Z,64.00
2023-04-16T07:32:43.788Z,64.28
2023-04-16T07:35:10.121Z,62.92
2023-04-16T07:37:36.422Z,63.00
2023-04-16T07:40:02.775Z,59.78
2023-04-16T07:42:29.081Z,54.33
2023-04-16T07:44:55.544Z,59.70
2023-04-16T07:47:21.912Z,64.40
2023-04-16T07:49:49.059Z,60.40
2023-04-16T07:52:15.490Z,58.08
2023-04-16T07:54:41.829Z,59.10
2023-04-16T07:57:08.138Z,61.17
2023-04-16T07:59:34.432Z,59.42
2023-04-16T08:02:00.879Z,57.42
2023-04-16T08:04:27.458Z,57.78
2023-04-16T08:06:54.244Z,58.70
2023-04-16T08:09:22.755Z,59.25
2023-04-16T08:11:49.479Z,62.72
2023-04-16T08:14:18.868Z,56.83
2023-04-16T08:16:45.231Z,59.97
2023-04-16T08:19:11.784Z,54.42
2023-04-16T08:21:38.424Z,55.95
2023-04-16T08:24:04.861Z,58.08
2023-04-16T08:26:31.217Z,67.47
2023-04-16T08:28:57.525Z,64.82
2023-04-16T08:31:24.044Z,60.75
2023-04-16T08:33:50.358Z,54.88
2023-04-16T08:36:16.682Z,53.13
2023-04-16T08:38:42.962Z,60.08
2023-04-16T08:41:12.402Z,56.83
2023-04-16T08:43:43.884Z,53.08
2023-04-16T08:46:11.493Z,49.72
2023-04-16T08:48:38.721Z,51.70
2023-04-16T08:51:07.147Z,50.28
2023-04-16T08:53:36.385Z,52.30
2023-04-16T08:56:09.717Z,50.88
2023-04-16T08:58:37.441Z,49.05
2023-04-16T09:01:03.993Z,47.67
2023-04-16T09:03:35.665Z,50.95
2023-04-16T09:06:04.303Z,49.15
2023-04-16T09:08:31.890Z,54.85
2023-04-16T09:10:59.312Z,48.60
2023-04-16T09:13:25.661Z,50.67
2023-04-16T09:15:53.609Z,52.40
2023-04-16T09:18:20.412Z,51.10
2023-04-16T09:20:48.585Z,50.78
2023-04-16T09:23:14.906Z,47.65
2023-04-16T09:25:41.220Z,55.90
2023-04-16T09:28:07.545Z,48.10
2023-04-16T09:30:33.865Z,51.88
2023-04-16T09:33:19.844Z,51.55
2023-04-16T09:35:50.951Z,48.03
2023-04-16T09:38:18.387Z,52.88
2023-04-16T09:40:44.907Z,46.13
2023-04-16T09:43:17.450Z,48.05
2023-04-16T09:45:54.766Z,47.15
2023-04-16T09:48:31.938Z,51.17
2023-04-16T09:50:59.737Z,47.85
2023-04-16T09:53:31.555Z,46.97
2023-04-16T09:56:05.252Z,48.72
2023-04-16T09:58:31.903Z,48.72
2023-04-16T10:01:12.243Z,44.08
2023-04-16T10:03:40.412Z,44.63
2023-04-16T10:06:13.763Z,48.28
2023-04-16T10:08:53.591Z,47.28
2023-04-16T10:11:20.685Z,41.20
2023-04-16T10:13:47.503Z,46.90
2023-04-16T10:16:13.893Z,46.47
2023-04-16T10:18:42.244Z,42.53
2023-04-16T10:21:09.095Z,46.75
2023-04-16T10:23:35.395Z,47.83
2023-04-16T10:26:02.308Z,43.42
2023-04-16T10:28:28.789Z,47.22
2023-04-16T10:30:57.372Z,44.17
2023-04-16T10:33:27.757Z,53.33
2023-04-16T10:36:16.797Z,44.13
2023-04-16T10:38:53.473Z,45.22
2023-04-16T10:41:20.414Z,43.25
2023-04-16T10:43:49.288Z,47.72
2023-04-16T10:46:19.335Z,45.65
2023-04-16T10:48:50.260Z,46.78
2023-04-16T10:51:25.778Z,44.15
2023-04-16T10:56:26.681Z,49.30
2023-04-16T10:58:54.585Z,48.25
2023-04-16T11:01:29.769Z,51.72
2023-04-16T11:03:56.375Z,45.67
2023-04-16T11:06:27.042Z,47.70
2023-04-16T11:08:55.231Z,50.85
2023-04-16T11:11:22.877Z,50.88
2023-04-16T11:13:49.331Z,45.10
2023-04-16T11:16:16.974Z,50.03
2023-04-16T11:18:51.387Z,48.03
2023-04-16T11:21:19.170Z,54.85
2023-04-16T11:23:49.829Z,54.00
2023-04-16T11:26:27.559Z,49.95
2023-04-16T11:28:55.500Z,54.80
2023-04-16T11:31:22.546Z,52.63
2023-04-16T11:33:49.396Z,51.03
2023-04-16T11:36:15.726Z,45.75
2023-04-16T11:38:42.083Z,46.92
2023-04-16T11:41:09.331Z,51.70
2023-04-16T11:43:35.736Z,47.70
2023-04-16T11:46:10.296Z,48.42
2023-04-16T11:48:47.663Z,45.47
2023-04-16T11:51:14.254Z,45.67
2023-04-16T11:53:54.021Z,43.10
2023-04-16T11:56:32.128Z,49.30
2023-04-16T11:59:13.225Z,48.50
2023-04-16T12:01:41.409Z,45.33
2023-04-16T12:04:09.029Z,47.40
2023-04-16T12:06:35.649Z,50.33
2023-04-16T12:09:22.511Z,42.97
2023-04-16T12:11:48.832Z,44.30
2023-04-16T12:14:15.145Z,46.17
2023-04-16T12:16:41.564Z,47.80
2023-04-16T12:19:12.286Z,42.15
2023-04-16T12:21:41.255Z,48.30
2023-04-16T12:24:09.556Z,45.83
2023-04-16T12:26:44.187Z,42.63
2023-04-16T12:29:26.578Z,48.15
2023-04-16T12:31:54.166Z,43.75
2023-04-16T12:34:21.562Z,46.38
2023-04-16T12:39:33.272Z,41.08
2023-04-16T12:41:59.572Z,44.03
2023-04-16T12:44:26.343Z,44.75
2023-04-16T12:46:52.658Z,46.55
2023-04-16T12:49:18.958Z,43.05
2023-04-16T12:51:45.292Z,41.42
2023-04-16T12:54:11.601Z,44.90
2023-04-16T12:56:37.970Z,40.63
2023-04-16T12:59:04.313Z,41.10
2023-04-16T13:01:30.695Z,38.38
2023-04-16T13:03:57.281Z,41.60
2023-04-16T13:06:23.836Z,35.83
2023-04-16T13:08:50.136Z,38.88
2023-04-16T13:11:16.485Z,39.05
2023-04-16T13:13:42.775Z,41.88
2023-04-16T13:16:09.095Z,40.97
2023-04-16T13:18:36.152Z,37.47
2023-04-16T13:21:02.567Z,39.60
2023-04-16T13:23:29.109Z,39.05
2023-04-16T13:25:55.421Z,39.08
2023-04-16T13:28:21.732Z,34.50
2023-04-16T13:30:48.252Z,35.33
2023-04-16T13:33:14.555Z,37.05
2023-04-16T13:35:40.883Z,39.03
2023-04-16T13:38:07.313Z,35.58
2023-04-16T13:40:33.634Z,37.03
2023-04-16T13:42:59.954Z,37.05
2023-04-16T13:45:26.580Z,37.60
2023-04-16T13:47:53.045Z,36.08
2023-04-16T13:50:19.503Z,38.85
2023-04-16T13:52:45.872Z,38.13
2023-04-16T13:55:12.194Z,35.40
2023-04-16T13:57:38.806Z,39.30
2023-04-16T14:00:05.831Z,36.70
2023-04-16T14:02:32.250Z,37.80
2023-04-16T14:04:58.672Z,36.90
2023-04-16T14:07:24.980Z,33.08
2023-04-16T14:09:51.295Z,36.10
2023-04-16T14:12:17.622Z,37.03
2023-04-16T14:14:43.939Z,33.72
2023-04-16T14:17:10.368Z,38.50
2023-04-16T14:19:36.686Z,39.53
2023-04-16T14:22:02.983Z,36.85
2023-04-16T14:24:29.335Z,37.28
2023-04-16T14:26:55.874Z,37.58
2023-04-16T14:29:22.210Z,39.53
2023-04-16T14:31:48.547Z,40.50
2023-04-16T14:34:14.876Z,38.95
2023-04-16T14:36:41.200Z,38.78
2023-04-16T14:39:07.645Z,35.88
2023-04-16T14:41:34.000Z,36.83
2023-04-16T14:44:00.319Z,40.95
2023-04-16T14:46:26.614Z,35.40
2023-04-16T14:48:53.212Z,33.72
2023-04-16T14:51:19.539Z,32.53
2023-04-16T14:53:45.863Z,33.13
2023-04-16T14:56:12.161Z,33.58
2023-04-16T14:58:39.446Z,37.28
2023-04-16T15:01:05.906Z,32.70
2023-04-16T15:03:32.587Z,34.25
2023-04-16T15:05:59.396Z,31.52
2023-04-16T15:08:25.768Z,32.15
2023-04-16T15:10:52.093Z,29.52
2023-04-16T15:13:18.514Z,30.98
2023-04-16T15:15:44.889Z,33.78
2023-04-16T15:18:11.273Z,28.88
2023-04-16T15:20:37.593Z,30.17
2023-04-16T15:23:04.084Z,31.05
2023-04-16T15:25:30.381Z,30.58
2023-04-16T15:27:56.706Z,30.92
2023-04-16T15:30:22.999Z,34.92
2023-04-16T15:32:49.319Z,30.15
2023-04-16T15:35:15.651Z,31.20
2023-04-16T15:37:41.974Z,31.63
2023-04-16T15:40:08.444Z,31.52
2023-04-16T15:42:34.780Z,32.88
2023-04-16T15:45:01.106Z,34.70
2023-04-16T15:47:27.422Z,30.25
2023-04-16T15:49:53.805Z,28.42
2023-04-16T15:52:20.255Z,31.58
2023-04-16T15:54:46.625Z,30.15
2023-04-16T15:57:12.922Z,30.33
2023-04-16T15:59:39.226Z,30.08
2023-04-16T16:02:05.618Z,30.88
2023-04-16T16:04:32.515Z,29.83
2023-04-16T16:06:58.958Z,26.95
2023-04-16T16:09:25.301Z,28.08
2023-04-16T16:11:55.218Z,28.08
2023-04-16T16:14:22.325Z,30.40
2023-04-16T16:16:48.945Z,30.20
2023-04-16T16:19:15.336Z,31.50
2023-04-16T16:21:41.643Z,27.40
2023-04-16T16:24:07.938Z,33.70
2023-04-16T16:26:34.232Z,31.33
2023-04-16T16:29:01.954Z,27.55
2023-04-16T16:31:28.300Z,29.33
2023-04-16T16:33:54.612Z,27.70
2023-04-16T16:36:21.464Z,31.83
2023-04-16T16:38:47.751Z,30.60
2023-04-16T16:41:14.188Z,34.78
2023-04-16T16:43:40.480Z,28.33
2023-04-16T16:46:06.786Z,29.85
2023-04-16T16:48:33.493Z,30.17
2023-04-16T16:50:59.791Z,31.63
2023-04-16T16:53:26.069Z,30.60
2023-04-16T16:55:52.348Z,31.70
2023-04-16T16:58:18.652Z,31.95
2023-04-16T17:00:44.987Z,33.63
2023-04-16T17:03:11.573Z,33.35
2023-04-16T17:05:38.059Z,35.20
2023-04-16T17:08:04.508Z,49.58
2023-04-16T17:10:30.799Z,35.67
2023-04-16T17:12:57.110Z,37.33
2023-04-16T17:15:23.447Z,35.45
2023-04-16T17:17:49.964Z,30.35
2023-04-16T17:20:16.392Z,30.85
2023-04-16T17:22:42.718Z,31.40
2023-04-16T17:25:09.318Z,35.10
2023-04-16T17:27:35.671Z,33.17
2023-04-16T17:30:03.729Z,35.33
2023-04-16T17:32:30.715Z,34.63
2023-04-16T17:34:57.223Z,30.67
2023-04-16T17:37:23.568Z,31.55
2023-04-16T17:39:50.008Z,34.70
2023-04-16T17:42:16.399Z,37.03
2023-04-16T17:44:42.851Z,35.08
2023-04-16T17:47:09.224Z,35.65
2023-04-16T17:49:35.529Z,33.47
2023-04-16T17:52:01.942Z,32.33
2023-04-16T17:54:28.384Z,31.77
2023-04-16T17:56:54.688Z,31.80
2023-04-16T17:59:21.648Z,36.78
2023-04-16T18:01:48.036Z,34.65
2023-04-16T18:04:14.675Z,35.88
2023-04-16T18:06:41.389Z,32.22
2023-04-16T18:09:07.716Z,34.97
2023-04-16T18:11:34.009Z,33.70
2023-04-16T18:14:00.315Z,31.42
2023-04-16T18:16:26.765Z,40.03
2023-04-16T18:18:53.120Z,50.20
2023-04-16T18:21:19.758Z,39.00
2023-04-16T18:23:46.084Z,44.40
2023-04-16T18:26:12.849Z,48.83
2023-04-16T18:28:39.216Z,45.45
2023-04-16T18:31:05.589Z,40.55
2023-04-16T18:36:01.723Z,36.13
2023-04-16T18:38:28.171Z,37.60
2023-04-16T18:40:54.477Z,32.42
2023-04-16T18:43:20.790Z,35.90
2023-04-16T18:45:47.091Z,37.40
2023-04-16T18:48:13.412Z,35.78
2023-04-16T18:50:39.706Z,36.10
2023-04-16T18:53:06.179Z,38.92
2023-04-16T18:55:32.488Z,37.92
2023-04-16T18:57:58.802Z,38.75
2023-04-16T19:00:25.249Z,38.70
2023-04-16T19:02:51.651Z,39.75
2023-04-16T19:05:18.123Z,41.03
2023-04-16T19:07:44.425Z,41.53
2023-04-16T19:10:10.848Z,41.72
2023-04-16T19:12:37.167Z,41.03
2023-04-16T19:15:04.578Z,39.53
2023-04-16T19:17:30.888Z,44.42
2023-04-16T19:19:57.344Z,35.45
2023-04-16T19:22:23.672Z,36.10
2023-04-16T19:24:49.975Z,37.13
2023-04-16T19:27:16.304Z,35.80
2023-04-16T19:29:42.603Z,38.92
2023-04-16T19:32:08.997Z,39.28
2023-04-16T19:34:35.345Z,40.95
2023-04-16T19:37:01.644Z,42.50
2023-04-16T19:39:28.071Z,43.05
2023-04-16T19:41:54.360Z,43.65
2023-04-16T19:44:20.695Z,40.58
2023-04-16T19:46:46.992Z,42.40
2023-04-16T19:49:13.541Z,40.25
2023-04-16T19:51:39.958Z,39.65
2023-04-16T19:54:06.275Z,42.35
2023-04-16T19:56:32.627Z,44.95
2023-04-16T19:58:58.927Z,44.85
2023-04-16T20:01:25.253Z,39.20
2023-04-16T20:03:51.627Z,42.65
2023-04-16T20:06:17.971Z,41.58
2023-04-16T20:08:44.266Z,41.35
2023-04-16T20:11:10.636Z,39.10
2023-04-16T20:13:36.939Z,42.97
2023-04-16T20:16:03.532Z,40.83
2023-04-16T20:18:29.844Z,45.63
2023-04-16T20:20:56.156Z,43.78
2023-04-16T20:23:22.453Z,44.85
2023-04-16T20:25:48.780Z,42.25
2023-04-16T20:28:15.068Z,42.22
2023-04-16T20:30:41.605Z,42.88
2023-04-16T20:33:08.504Z,39.55
2023-04-16T20:35:34.977Z,44.15
2023-04-16T20:38:01.376Z,44.53
2023-04-16T20:40:28.072Z,38.78
2023-04-16T20:42:54.381Z,40.20
2023-04-16T20:45:20.673Z,42.63
2023-04-16T20:47:47.074Z,41.15
2023-04-16T20:50:13.535Z,38.28
2023-04-16T20:52:39.847Z,39.75
2023-04-16T20:55:06.814Z,39.72
2023-04-16T20:57:33.115Z,37.38
2023-04-16T20:59:59.419Z,37.53
2023-04-16T21:02:26.011Z,37.75
2023-04-16T21:04:52.538Z,37.75
2023-04-16T21:07:18.901Z,38.05
2023-04-16T21:09:45.216Z,39.45
2023-04-16T21:12:11.511Z,37.05
2023-04-16T21:14:37.818Z,36.60
2023-04-16T21:17:04.114Z,38.63
2023-04-16T21:19:30.511Z,35.97
2023-04-16T21:21:56.811Z,35.85
2023-04-16T21:24:23.113Z,34.20
2023-04-16T21:26:49.451Z,34.40
2023-04-16T21:29:15.773Z,37.08
2023-04-16T21:31:42.128Z,36.13
2023-04-16T21:34:08.468Z,36.50
2023-04-16T21:36:34.777Z,38.95
2023-04-16T21:39:01.085Z,37.17
2023-04-16T21:41:27.554Z,42.95
2023-04-16T21:43:53.898Z,36.42
2023-04-16T21:46:20.245Z,34.75
2023-04-16T21:48:46.542Z,34.75
2023-04-16T21:51:12.849Z,39.60
2023-04-16T21:53:39.187Z,39.72
2023-04-16T21:56:06.304Z,41.35
2023-04-16T21:58:32.611Z,35.55
2023-04-16T22:00:58.920Z,37.33
2023-04-16T22:03:25.367Z,35.22
2023-04-16T22:05:57.571Z,37.00
2023-04-16T22:08:25.162Z,36.65
2023-04-16T22:10:51.616Z,38.92
2023-04-16T22:13:18.019Z,36.40
2023-04-16T22:15:44.520Z,32.65
2023-04-16T22:18:10.825Z,34.42
2023-04-16T22:20:37.149Z,32.38
2023-04-16T22:23:03.445Z,38.78
2023-04-16T22:25:29.782Z,31.98
2023-04-16T22:27:56.114Z,36.83
2023-04-16T22:30:22.469Z,31.67
2023-04-16T22:32:48.894Z,35.53
2023-04-16T22:35:15.342Z,36.15
2023-04-16T22:37:41.666Z,37.88
2023-04-16T22:40:08.656Z,31.52
2023-04-16T22:42:35.233Z,34.53
2023-04-16T22:45:01.555Z,37.67
2023-04-16T22:47:27.953Z,34.55
2023-04-16T22:49:54.337Z,39.60
2023-04-16T22:52:20.636Z,37.33
2023-04-16T22:54:46.934Z,34.63
2023-04-16T22:57:13.255Z,36.25
2023-04-16T22:59:39.546Z,35.33
2023-04-16T23:02:05.951Z,36.47
2023-04-16T23:04:32.481Z,33.10
2023-04-16T23:06:58.981Z,37.13
2023-04-16T23:09:25.283Z,37.83
2023-04-16T23:11:51.631Z,41.85
2023-04-16T23:14:17.971Z,42.40
2023-04-16T23:16:44.279Z,43.75
2023-04-16T23:19:10.831Z,44.03
2023-04-16T23:21:37.350Z,44.00
2023-04-16T23:24:03.869Z,41.95
2023-04-16T23:26:30.165Z,43.10
2023-04-16T23:28:56.464Z,47.03
2023-04-16T23:31:22.803Z,41.75
2023-04-16T23:33:49.180Z,46.47
2023-04-16T23:36:15.489Z,42.88
2023-04-16T23:38:41.865Z,48.70
2023-04-16T23:41:08.177Z,48.30
2023-04-16T23:43:34.482Z,49.40
2023-04-16T23:46:00.951Z,45.80
2023-04-16T23:48:27.734Z,44.95
2023-04-16T23:50:54.165Z,50.70
2023-04-16T23:53:20.492Z,47.72
2023-04-16T23:55:46.796Z,48.50
2023-04-16T23:58:13.108Z,50.53
